createdAt,value
2019-03-30T00:02:25.546Z,7.33
2019-03-30T00:04:54.166Z,6.30
2019-03-30T00:07:24.071Z,8.20
2019-03-30T00:09:52.372Z,7.37
2019-03-30T00:12:23.024Z,9.50
2019-03-30T00:14:52.016Z,7.67
2019-03-30T00:17:21.078Z,8.37
2019-03-30T00:19:50.018Z,7.47
2019-03-30T00:22:19.062Z,7.47
2019-03-30T00:24:47.614Z,8.00
2019-03-30T00:27:15.842Z,11.30
2019-03-30T00:29:44.905Z,7.70
2019-03-30T00:32:13.455Z,8.17
2019-03-30T00:34:42.798Z,6.50
2019-03-30T00:37:11.369Z,7.77
2019-03-30T00:39:39.870Z,7.40
2019-03-30T00:42:08.433Z,7.07
2019-03-30T00:44:36.710Z,7.80
2019-03-30T00:47:04.822Z,7.37
2019-03-30T00:49:33.108Z,7.83
2019-03-30T00:52:01.453Z,9.43
2019-03-30T00:54:29.691Z,7.10
2019-03-30T00:56:58.907Z,7.57
2019-03-30T00:59:27.105Z,7.33
2019-03-30T01:01:56.360Z,6.73
2019-03-30T01:04:24.987Z,7.43
2019-03-30T01:06:53.938Z,8.13
2019-03-30T01:09:22.423Z,8.53
2019-03-30T01:11:50.716Z,9.00
2019-03-30T01:14:20.468Z,7.10
2019-03-30T01:16:48.856Z,8.53
2019-03-30T01:19:17.765Z,10.00
2019-03-30T01:21:47.111Z,9.53
2019-03-30T01:24:16.363Z,8.03
2019-03-30T01:26:48.702Z,8.37
2019-03-30T01:29:18.184Z,8.57
2019-03-30T01:31:47.283Z,8.90
2019-03-30T01:34:15.135Z,8.70
2019-03-30T01:36:44.122Z,8.67
2019-03-30T01:39:12.612Z,8.07
2019-03-30T01:41:41.211Z,8.43
2019-03-30T01:44:10.186Z,7.80
2019-03-30T01:46:39.203Z,8.57
2019-03-30T01:49:08.252Z,7.33
2019-03-30T01:51:35.776Z,8.03
2019-03-30T01:54:03.614Z,7.70
2019-03-30T01:56:32.196Z,8.50
2019-03-30T01:59:00.110Z,9.70
2019-03-30T02:01:29.460Z,8.20
2019-03-30T02:03:58.665Z,9.03
2019-03-30T02:06:27.533Z,8.47
2019-03-30T02:08:56.154Z,8.33
2019-03-30T02:11:24.337Z,8.27
2019-03-30T02:13:53.359Z,8.50
2019-03-30T02:16:22.433Z,7.00
2019-03-30T02:18:55.007Z,8.30
2019-03-30T02:21:23.993Z,8.70
2019-03-30T02:23:53.422Z,8.33
2019-03-30T02:26:22.864Z,8.40
2019-03-30T02:28:51.791Z,8.40
2019-03-30T02:31:20.149Z,7.00
2019-03-30T02:33:49.469Z,7.43
2019-03-30T02:36:18.598Z,8.07
2019-03-30T02:38:46.582Z,7.67
2019-03-30T02:41:15.116Z,7.20
2019-03-30T02:43:44.184Z,7.20
2019-03-30T02:46:12.592Z,8.87
2019-03-30T02:48:41.187Z,6.67
2019-03-30T02:51:10.189Z,7.83
2019-03-30T02:53:39.452Z,7.37
2019-03-30T02:56:08.859Z,7.90
2019-03-30T02:58:40.286Z,8.27
2019-03-30T03:01:09.438Z,7.70
2019-03-30T03:03:38.812Z,7.33
2019-03-30T03:06:07.136Z,7.50
2019-03-30T03:08:36.708Z,8.10
2019-03-30T03:11:06.107Z,6.80
2019-03-30T03:13:34.825Z,7.07
2019-03-30T03:16:13.508Z,7.83
2019-03-30T03:18:43.743Z,7.20
2019-03-30T03:21:14.177Z,8.27
2019-03-30T03:23:43.264Z,7.80
2019-03-30T03:26:11.747Z,8.20
2019-03-30T03:28:40.216Z,10.30
2019-03-30T03:31:09.147Z,8.53
2019-03-30T03:33:38.081Z,9.07
2019-03-30T03:36:06.694Z,8.23
2019-03-30T03:38:34.551Z,9.33
2019-03-30T03:41:03.111Z,6.40
2019-03-30T03:43:32.262Z,6.63
2019-03-30T03:46:02.499Z,8.13
2019-03-30T03:48:31.327Z,10.63
2019-03-30T03:51:00.891Z,8.23
2019-03-30T03:53:32.009Z,7.40
2019-03-30T03:56:01.220Z,8.30
2019-03-30T03:58:32.844Z,7.43
2019-03-30T04:01:03.319Z,8.23
2019-03-30T04:03:33.208Z,7.70
2019-03-30T04:06:05.072Z,9.43
2019-03-30T04:08:43.971Z,8.13
2019-03-30T04:11:14.727Z,8.93
2019-03-30T04:13:45.385Z,7.10
2019-03-30T04:16:14.557Z,8.83
2019-03-30T04:18:47.655Z,9.93
2019-03-30T04:21:13.760Z,8.37
2019-03-30T04:23:42.005Z,8.20
2019-03-30T04:26:10.953Z,8.87
2019-03-30T04:28:38.821Z,9.10
2019-03-30T04:31:07.015Z,8.57
2019-03-30T04:33:35.736Z,7.97
2019-03-30T04:36:04.061Z,8.90
2019-03-30T04:38:33.033Z,9.10
2019-03-30T04:41:01.631Z,8.20
2019-03-30T04:43:30.644Z,8.23
2019-03-30T04:45:58.909Z,8.60
2019-03-30T04:48:29.532Z,10.33
2019-03-30T04:50:57.741Z,10.20
2019-03-30T04:53:26.768Z,8.60
2019-03-30T04:55:55.696Z,7.83
2019-03-30T04:58:24.164Z,8.80
2019-03-30T05:00:53.051Z,9.27
2019-03-30T05:03:21.395Z,7.80
2019-03-30T05:05:50.004Z,9.20
2019-03-30T05:08:18.904Z,7.70
2019-03-30T05:10:48.312Z,8.47
2019-03-30T05:13:17.760Z,8.83
2019-03-30T05:15:49.298Z,9.17
2019-03-30T05:18:20.996Z,7.40
2019-03-30T05:20:49.208Z,8.20
2019-03-30T05:23:19.666Z,8.60
2019-03-30T05:25:47.828Z,8.10
2019-03-30T05:28:16.122Z,8.80
2019-03-30T05:30:45.094Z,8.87
2019-03-30T05:33:14.402Z,7.97
2019-03-30T05:35:44.013Z,8.47
2019-03-30T05:38:12.999Z,8.70
2019-03-30T05:40:42.295Z,7.97
2019-03-30T05:43:11.039Z,8.77
2019-03-30T05:45:40.114Z,10.10
2019-03-30T05:48:11.658Z,9.53
2019-03-30T05:50:40.403Z,10.30
2019-03-30T05:53:10.240Z,8.90
2019-03-30T05:55:39.294Z,10.17
2019-03-30T05:58:07.567Z,8.40
2019-03-30T06:00:36.684Z,10.40
2019-03-30T06:03:05.294Z,8.50
2019-03-30T06:05:33.489Z,10.57
2019-03-30T06:08:02.472Z,10.20
2019-03-30T06:10:31.244Z,9.70
2019-03-30T06:12:59.926Z,9.50
2019-03-30T06:15:29.022Z,10.57
2019-03-30T06:17:57.671Z,10.23
2019-03-30T06:20:27.006Z,10.50
2019-03-30T06:22:55.932Z,10.40
2019-03-30T06:25:24.777Z,10.93
2019-03-30T06:27:53.485Z,12.00
2019-03-30T06:30:29.445Z,11.53
2019-03-30T06:32:58.343Z,10.97
2019-03-30T06:35:26.927Z,11.27
2019-03-30T06:37:55.496Z,11.60
2019-03-30T06:40:24.097Z,11.30
2019-03-30T06:42:52.766Z,11.30
2019-03-30T06:45:21.267Z,11.37
2019-03-30T06:47:50.076Z,14.47
2019-03-30T06:50:18.340Z,10.90
2019-03-30T06:52:57.576Z,11.27
2019-03-30T06:55:16.716Z,12.30
2019-03-30T06:57:44.996Z,13.40
2019-03-30T07:00:14.049Z,12.17
2019-03-30T07:02:43.673Z,11.70
2019-03-30T07:05:14.749Z,12.07
2019-03-30T07:07:45.897Z,13.80
2019-03-30T07:10:14.556Z,11.50
2019-03-30T07:12:42.739Z,13.47
2019-03-30T07:15:11.026Z,13.50
2019-03-30T07:17:46.402Z,13.57
2019-03-30T07:20:26.644Z,11.63
2019-03-30T07:22:56.041Z,13.47
2019-03-30T07:25:23.685Z,13.40
2019-03-30T07:27:51.628Z,11.30
2019-03-30T07:30:20.391Z,12.60
2019-03-30T07:32:49.328Z,12.23
2019-03-30T07:35:18.599Z,13.00
2019-03-30T07:37:47.597Z,14.83
2019-03-30T07:40:16.530Z,13.13
2019-03-30T07:42:47.344Z,12.63
2019-03-30T07:45:16.330Z,12.43
2019-03-30T07:47:45.430Z,13.00
2019-03-30T07:50:14.551Z,14.00
2019-03-30T07:52:43.847Z,13.67
2019-03-30T07:55:13.986Z,12.37
2019-03-30T07:57:46.403Z,14.40
2019-03-30T08:00:17.927Z,18.17
2019-03-30T08:02:46.668Z,14.10
2019-03-30T08:05:14.582Z,12.77
2019-03-30T08:07:43.242Z,18.67
2019-03-30T08:10:12.633Z,12.30
2019-03-30T08:12:43.178Z,12.43
2019-03-30T08:15:12.091Z,11.60
2019-03-30T08:17:40.254Z,17.33
2019-03-30T08:20:09.080Z,12.40
2019-03-30T08:22:38.616Z,14.47
2019-03-30T08:25:07.785Z,13.47
2019-03-30T08:27:36.094Z,127.70
2019-03-30T08:30:05.973Z,55.23
2019-03-30T08:32:34.215Z,45.33
2019-03-30T08:35:03.048Z,14.57
2019-03-30T08:37:31.617Z,17.90
2019-03-30T08:40:01.552Z,14.43
2019-03-30T08:42:30.704Z,17.67
2019-03-30T08:44:59.272Z,15.40
2019-03-30T08:47:27.566Z,15.73
2019-03-30T08:49:58.504Z,14.00
2019-03-30T08:52:27.326Z,14.20
2019-03-30T08:54:55.983Z,16.50
2019-03-30T08:57:25.310Z,17.37
2019-03-30T08:59:54.222Z,15.27
2019-03-30T09:02:22.482Z,15.10
2019-03-30T09:04:51.158Z,18.70
2019-03-30T09:07:19.914Z,15.13
2019-03-30T09:09:49.276Z,18.70
2019-03-30T09:12:18.348Z,34.63
2019-03-30T09:14:46.595Z,16.80
2019-03-30T09:17:17.214Z,24.93
2019-03-30T09:19:46.533Z,16.50
2019-03-30T09:22:17.600Z,16.87
2019-03-30T09:24:47.847Z,16.43
2019-03-30T09:27:16.499Z,24.03
2019-03-30T09:29:45.970Z,15.83
2019-03-30T09:32:15.151Z,17.87
2019-03-30T09:34:43.624Z,18.03
2019-03-30T09:37:12.126Z,20.57
2019-03-30T09:39:41.477Z,17.47
2019-03-30T09:42:11.423Z,16.27
2019-03-30T09:44:40.373Z,16.47
2019-03-30T09:47:10.066Z,14.47
2019-03-30T09:49:39.208Z,15.57
2019-03-30T09:52:09.587Z,16.73
2019-03-30T09:54:37.894Z,16.80
2019-03-30T09:57:07.464Z,16.77
2019-03-30T09:59:37.380Z,31.47
2019-03-30T10:02:06.548Z,17.07
2019-03-30T10:04:34.750Z,17.87
2019-03-30T10:07:03.364Z,16.30
2019-03-30T10:09:32.025Z,272.53
2019-03-30T10:12:00.960Z,315.70
2019-03-30T10:14:30.024Z,307.63
2019-03-30T10:16:58.251Z,297.37
2019-03-30T10:19:27.725Z,304.13
2019-03-30T10:21:56.804Z,304.47
2019-03-30T10:24:37.836Z,64.23
2019-03-30T10:26:59.122Z,143.83
2019-03-30T10:29:28.008Z,172.13
2019-03-30T10:31:59.684Z,261.23
2019-03-30T10:34:27.249Z,222.27
2019-03-30T10:36:55.564Z,125.27
2019-03-30T10:39:25.217Z,33.00
2019-03-30T10:41:54.703Z,14.33
2019-03-30T10:44:24.035Z,18.40
2019-03-30T10:46:52.702Z,16.97
2019-03-30T10:49:21.806Z,32.73
2019-03-30T10:51:50.509Z,19.50
2019-03-30T10:54:18.860Z,42.53
2019-03-30T10:56:47.235Z,24.77
2019-03-30T10:59:15.944Z,58.30
2019-03-30T11:01:44.699Z,102.30
2019-03-30T11:04:13.444Z,258.37
2019-03-30T11:06:41.758Z,273.83
2019-03-30T11:09:10.177Z,329.87
2019-03-30T11:11:38.665Z,314.87
2019-03-30T11:14:08.565Z,43.27
2019-03-30T11:16:39.072Z,22.43
2019-03-30T11:19:07.895Z,15.30
2019-03-30T11:21:35.772Z,21.03
2019-03-30T11:24:06.672Z,20.50
2019-03-30T11:26:34.965Z,14.73
2019-03-30T11:29:04.279Z,15.33
2019-03-30T11:31:32.567Z,15.80
2019-03-30T11:34:01.323Z,16.90
2019-03-30T11:36:29.619Z,15.67
2019-03-30T11:38:58.132Z,15.70
2019-03-30T11:41:26.926Z,17.10
2019-03-30T11:43:55.660Z,13.50
2019-03-30T11:46:24.170Z,14.30
2019-03-30T11:48:53.352Z,14.90
2019-03-30T11:51:22.560Z,14.50
2019-03-30T11:53:52.019Z,13.27
2019-03-30T11:56:22.893Z,15.10
2019-03-30T11:58:56.178Z,10.73
2019-03-30T12:01:26.702Z,14.90
2019-03-30T12:04:03.663Z,15.37
2019-03-30T12:06:34.124Z,15.57
2019-03-30T12:09:04.684Z,14.57
2019-03-30T12:11:35.484Z,14.73
2019-03-30T12:14:11.439Z,14.97
2019-03-30T12:16:43.384Z,13.67
2019-03-30T12:19:13.927Z,14.20
2019-03-30T12:21:42.970Z,14.40
2019-03-30T12:24:25.585Z,13.90
2019-03-30T12:26:55.652Z,14.07
2019-03-30T12:29:27.363Z,14.63
2019-03-30T12:31:57.925Z,14.13
2019-03-30T12:34:27.704Z,13.10
2019-03-30T12:36:57.228Z,16.17
2019-03-30T12:39:25.100Z,13.93
2019-03-30T12:41:54.189Z,15.30
2019-03-30T12:44:22.653Z,14.80
2019-03-30T12:46:52.131Z,13.20
2019-03-30T12:49:21.132Z,13.30
2019-03-30T12:51:50.197Z,11.30
2019-03-30T12:54:19.284Z,13.97
2019-03-30T12:56:49.919Z,13.23
2019-03-30T12:59:19.127Z,11.97
2019-03-30T13:01:49.255Z,11.53
2019-03-30T13:04:18.464Z,11.73
2019-03-30T13:06:47.251Z,20.20
2019-03-30T13:09:16.108Z,11.37
2019-03-30T13:11:44.253Z,17.90
2019-03-30T13:14:13.600Z,11.17
2019-03-30T13:16:42.719Z,11.03
2019-03-30T13:19:11.850Z,17.87
2019-03-30T13:21:52.126Z,18.67
2019-03-30T13:24:12.339Z,12.43
2019-03-30T13:26:40.952Z,13.20
2019-03-30T13:29:09.747Z,12.20
2019-03-30T13:31:41.370Z,11.77
2019-03-30T13:34:13.297Z,12.20
2019-03-30T13:36:44.890Z,12.17
2019-03-30T13:39:14.474Z,11.70
2019-03-30T13:41:43.413Z,11.13
2019-03-30T13:44:11.956Z,13.37
2019-03-30T13:46:40.900Z,11.10
2019-03-30T13:49:10.512Z,9.33
2019-03-30T13:51:39.833Z,12.37
2019-03-30T13:54:08.469Z,11.10
2019-03-30T13:56:37.905Z,10.60
2019-03-30T13:59:06.710Z,12.80
2019-03-30T14:01:35.071Z,12.37
2019-03-30T14:04:06.181Z,11.40
2019-03-30T14:06:36.653Z,11.80
2019-03-30T14:09:05.615Z,11.70
2019-03-30T14:11:35.521Z,11.83
2019-03-30T14:14:05.695Z,13.57
2019-03-30T14:16:35.294Z,11.77
2019-03-30T14:19:03.489Z,11.77
2019-03-30T14:21:32.859Z,12.03
2019-03-30T14:24:02.254Z,9.90
2019-03-30T14:26:31.995Z,10.10
2019-03-30T14:29:01.150Z,8.67
2019-03-30T14:31:30.152Z,7.67
2019-03-30T14:34:00.084Z,8.73
2019-03-30T14:36:28.732Z,6.40
2019-03-30T14:38:57.351Z,6.50
2019-03-30T14:41:26.332Z,7.27
2019-03-30T14:43:54.799Z,9.73
2019-03-30T14:46:23.600Z,11.20
2019-03-30T14:48:51.654Z,10.30
2019-03-30T14:51:20.983Z,9.50
2019-03-30T14:53:57.198Z,10.37
2019-03-30T14:56:26.878Z,22.40
2019-03-30T14:59:10.128Z,13.00
2019-03-30T15:01:30.933Z,10.60
2019-03-30T15:03:59.776Z,7.43
2019-03-30T15:06:30.223Z,6.13
2019-03-30T15:08:58.971Z,5.93
2019-03-30T15:11:27.773Z,7.50
2019-03-30T15:13:58.774Z,6.60
2019-03-30T15:16:32.009Z,5.97
2019-03-30T15:19:00.721Z,5.03
2019-03-30T15:21:29.560Z,5.80
2019-03-30T15:23:58.615Z,4.50
2019-03-30T15:26:27.284Z,4.53
2019-03-30T15:29:00.184Z,5.00
2019-03-30T15:31:32.606Z,5.37
2019-03-30T15:34:03.235Z,5.23
2019-03-30T15:36:31.411Z,4.97
2019-03-30T15:39:01.897Z,5.33
2019-03-30T15:41:30.229Z,5.23
2019-03-30T15:43:59.738Z,4.90
2019-03-30T15:46:29.087Z,5.63
2019-03-30T15:48:57.430Z,7.10
2019-03-30T15:51:25.713Z,7.40
2019-03-30T15:53:54.523Z,5.30
2019-03-30T15:56:22.980Z,6.90
2019-03-30T15:59:02.696Z,8.77
2019-03-30T16:01:31.931Z,8.13
2019-03-30T16:04:02.818Z,7.17
2019-03-30T16:06:31.066Z,4.50
2019-03-30T16:09:02.064Z,5.03
2019-03-30T16:11:31.009Z,6.13
2019-03-30T16:14:00.123Z,7.50
2019-03-30T16:16:28.573Z,8.30
2019-03-30T16:18:57.152Z,6.63
2019-03-30T16:21:27.213Z,7.03
2019-03-30T16:23:57.260Z,8.90
2019-03-30T16:26:40.983Z,6.47
2019-03-30T16:29:08.403Z,6.73
2019-03-30T16:31:39.701Z,6.17
2019-03-30T16:34:08.579Z,7.30
2019-03-30T16:36:37.130Z,7.47
2019-03-30T16:39:08.473Z,6.27
2019-03-30T16:41:38.920Z,4.93
2019-03-30T16:44:07.191Z,9.27
2019-03-30T16:46:37.865Z,7.63
2019-03-30T16:49:09.632Z,10.00
2019-03-30T16:51:38.627Z,10.57
2019-03-30T16:54:07.269Z,6.00
2019-03-30T16:56:38.128Z,7.63
2019-03-30T16:59:07.704Z,10.00
2019-03-30T17:01:36.793Z,5.13
2019-03-30T17:04:05.033Z,5.30
2019-03-30T17:06:43.650Z,9.90
2019-03-30T17:09:12.185Z,8.83
2019-03-30T17:11:42.402Z,6.00
2019-03-30T17:14:11.655Z,6.23
2019-03-30T17:16:40.855Z,8.53
2019-03-30T17:19:12.060Z,6.83
2019-03-30T17:21:40.563Z,8.23
2019-03-30T17:24:08.780Z,3.97
2019-03-30T17:26:41.960Z,4.37
2019-03-30T17:29:15.758Z,4.50
2019-03-30T17:31:43.677Z,4.57
2019-03-30T17:34:12.147Z,7.40
2019-03-30T17:36:42.309Z,10.13
2019-03-30T17:39:12.483Z,7.70
2019-03-30T17:41:44.432Z,5.60
2019-03-30T17:44:13.829Z,10.43
2019-03-30T17:46:43.516Z,4.80
2019-03-30T17:49:12.685Z,6.87
2019-03-30T17:51:43.082Z,8.67
2019-03-30T17:54:11.279Z,10.07
2019-03-30T17:56:40.432Z,7.17
2019-03-30T17:59:10.519Z,7.23
2019-03-30T18:01:43.240Z,6.43
2019-03-30T18:04:11.404Z,10.53
2019-03-30T18:06:41.427Z,8.63
2019-03-30T18:09:09.106Z,8.53
2019-03-30T18:11:37.927Z,8.10
2019-03-30T18:14:06.288Z,8.23
2019-03-30T18:16:35.317Z,9.83
2019-03-30T18:19:06.497Z,13.70
2019-03-30T18:21:37.914Z,9.60
2019-03-30T18:24:06.285Z,7.50
2019-03-30T18:26:36.069Z,10.03
2019-03-30T18:29:04.752Z,12.57
2019-03-30T18:31:34.423Z,11.40
2019-03-30T18:34:02.581Z,21.73
2019-03-30T18:36:33.295Z,10.53
2019-03-30T18:39:09.769Z,13.70
2019-03-30T18:41:37.386Z,13.47
2019-03-30T18:44:05.875Z,12.10
2019-03-30T18:46:35.012Z,10.90
2019-03-30T18:49:04.239Z,14.63
2019-03-30T18:51:32.892Z,9.67
2019-03-30T18:54:01.578Z,13.23
2019-03-30T18:56:30.276Z,12.80
2019-03-30T18:58:58.746Z,13.17
2019-03-30T19:01:28.316Z,11.20
2019-03-30T19:03:57.918Z,15.50
2019-03-30T19:06:26.240Z,14.30
2019-03-30T19:08:54.784Z,9.60
2019-03-30T19:11:23.691Z,14.90
2019-03-30T19:13:55.160Z,11.53
2019-03-30T19:16:22.999Z,17.07
2019-03-30T19:18:52.995Z,10.57
2019-03-30T19:21:21.570Z,11.53
2019-03-30T19:23:49.457Z,10.50
2019-03-30T19:26:20.869Z,11.87
2019-03-30T19:28:56.642Z,12.93
2019-03-30T19:31:23.400Z,6.23
2019-03-30T19:33:51.748Z,9.47
2019-03-30T19:36:26.396Z,10.43
2019-03-30T19:38:54.901Z,15.67
2019-03-30T19:41:24.134Z,12.10
2019-03-30T19:43:52.774Z,13.83
2019-03-30T19:46:22.647Z,11.90
2019-03-30T19:48:50.471Z,13.83
2019-03-30T19:51:19.156Z,10.10
2019-03-30T19:53:47.029Z,14.33
2019-03-30T19:56:15.540Z,17.30
2019-03-30T19:58:43.549Z,24.90
2019-03-30T20:01:12.209Z,20.63
2019-03-30T20:03:40.208Z,15.80
2019-03-30T20:06:08.719Z,16.30
2019-03-30T20:08:36.663Z,47.23
2019-03-30T20:11:04.549Z,31.27
2019-03-30T20:13:33.135Z,21.00
2019-03-30T20:16:01.038Z,24.73
2019-03-30T20:18:29.294Z,36.60
2019-03-30T20:20:57.485Z,25.03
2019-03-30T20:23:32.864Z,26.10
2019-03-30T20:26:00.887Z,19.13
2019-03-30T20:28:30.367Z,18.00
2019-03-30T20:30:58.683Z,10.80
2019-03-30T20:33:26.664Z,14.53
2019-03-30T20:35:55.253Z,18.00
2019-03-30T20:38:23.562Z,12.47
2019-03-30T20:40:52.286Z,11.50
2019-03-30T20:43:23.763Z,11.67
2019-03-30T20:45:51.675Z,17.10
2019-03-30T20:48:21.232Z,19.57
2019-03-30T20:50:54.115Z,15.20
2019-03-30T20:53:22.782Z,18.63
2019-03-30T20:55:51.386Z,18.27
2019-03-30T20:58:19.387Z,30.73
2019-03-30T21:00:49.517Z,26.50
2019-03-30T21:03:17.439Z,18.20
2019-03-30T21:05:46.057Z,21.37
2019-03-30T21:08:31.539Z,25.43
2019-03-30T21:11:01.557Z,23.40
2019-03-30T21:13:29.790Z,19.87
2019-03-30T21:15:58.377Z,20.53
2019-03-30T21:18:26.279Z,19.93
2019-03-30T21:20:54.653Z,20.20
2019-03-30T21:23:23.249Z,13.23
2019-03-30T21:25:55.941Z,19.67
2019-03-30T21:28:24.600Z,22.70
2019-03-30T21:30:53.543Z,22.07
2019-03-30T21:33:23.488Z,56.63
2019-03-30T21:35:52.897Z,23.43
2019-03-30T21:38:21.416Z,14.47
2019-03-30T21:40:51.854Z,19.87
2019-03-30T21:43:19.920Z,14.33
2019-03-30T21:45:48.046Z,15.77
2019-03-30T21:48:16.622Z,20.47
2019-03-30T21:50:45.413Z,18.00
2019-03-30T21:53:15.575Z,19.73
2019-03-30T21:55:46.297Z,11.60
2019-03-30T21:58:14.278Z,18.77
2019-03-30T22:00:43.021Z,14.97
2019-03-30T22:03:11.303Z,21.40
2019-03-30T22:05:42.679Z,25.17
2019-03-30T22:08:11.484Z,34.90
2019-03-30T22:10:40.582Z,16.43
2019-03-30T22:13:13.587Z,17.57
2019-03-30T22:15:42.110Z,48.37
2019-03-30T22:18:10.357Z,21.80
2019-03-30T22:20:38.886Z,19.43
2019-03-30T22:23:06.751Z,58.43
2019-03-30T22:25:37.075Z,61.30
2019-03-30T22:28:05.067Z,31.10
2019-03-30T22:30:33.230Z,18.13
2019-03-30T22:33:01.076Z,17.20
2019-03-30T22:35:29.284Z,23.47
2019-03-30T22:38:02.232Z,20.93
2019-03-30T22:40:30.174Z,18.17
2019-03-30T22:42:58.171Z,27.70
2019-03-30T22:45:26.269Z,15.00
2019-03-30T22:47:54.192Z,15.67
2019-03-30T22:50:22.797Z,17.77
2019-03-30T22:52:50.990Z,19.23
2019-03-30T22:55:19.330Z,29.73
2019-03-30T22:57:48.011Z,27.40
2019-03-30T23:00:38.838Z,68.93
2019-03-30T23:03:07.572Z,39.37
2019-03-30T23:05:36.208Z,29.60
2019-03-30T23:08:03.756Z,20.87
2019-03-30T23:10:32.263Z,20.77
2019-03-30T23:13:00.486Z,16.70
2019-03-30T23:15:28.380Z,18.97
2019-03-30T23:17:57.204Z,22.50
2019-03-30T23:20:25.565Z,23.07
2019-03-30T23:22:53.802Z,20.87
2019-03-30T23:25:22.330Z,28.97
2019-03-30T23:27:50.539Z,32.73
2019-03-30T23:30:18.752Z,30.80
2019-03-30T23:32:47.237Z,22.10
2019-03-30T23:35:17.243Z,21.10
2019-03-30T23:37:45.393Z,28.90
2019-03-30T23:40:13.853Z,35.37
2019-03-30T23:42:42.353Z,32.77
2019-03-30T23:45:10.350Z,20.80
2019-03-30T23:47:38.518Z,79.67
2019-03-30T23:50:07.080Z,62.40
2019-03-30T23:52:35.049Z,53.27
2019-03-30T23:55:02.921Z,57.47
2019-03-30T23:57:31.264Z,47.43
2019-03-30T23:59:59.125Z,33.00
